Terminal Aerodrome Forecast
Issued by NWS Twin Cities, MN

Home | Current Version | Previous Version | Graphics & Text | Print | Product List | Glossary On
Versions: 1 2 3 4 5 6 7 8 9 10 11 12 13 14 15 16 17 18 19 20 21 22 23 24 25
073
FTUS43 KMPX 202045 AAA
TAFMSP
TAF AMD
KMSP 202045Z 2021/2124 32015G21KT P6SM BKN035
     FM210200 32010KT P6SM BKN040
     FM210600 33004KT P6SM SCT035
     FM211400 34009KT P6SM FEW030=

USA.gov is the U.S. government's official web portal to all federal, state and local government web resources and services.